sensor_id;sensor_type;location;lat;lon;timestamp;P1;durP1;ratioP1;P2;durP2;ratioP2
8102;SDS011;4094;49.948;11.574;2023-03-01T00:01:53;22.70;;;20.60;;
8102;SDS011;4094;49.948;11.574;2023-03-01T00:04:22;21.37;;;19.53;;
8102;SDS011;4094;49.948;11.574;2023-03-01T00:06:51;21.80;;;20.00;;
8102;SDS011;4094;49.948;11.574;2023-03-01T00:09:22;21.77;;;19.80;;
8102;SDS011;4094;49.948;11.574;2023-03-01T00:11:50;21.67;;;19.87;;
8102;SDS011;4094;49.948;11.574;2023-03-01T00:14:19;22.17;;;20.17;;
8102;SDS011;4094;49.948;11.574;2023-03-01T00:16:48;22.03;;;20.03;;
8102;SDS011;4094;49.948;11.574;2023-03-01T00:19:18;21.70;;;19.70;;
8102;SDS011;4094;49.948;11.574;2023-03-01T00:21:48;22.40;;;20.40;;
8102;SDS011;4094;49.948;11.574;2023-03-01T00:24:17;21.23;;;19.43;;
8102;SDS011;4094;49.948;11.574;2023-03-01T00:26:48;21.03;;;19.23;;
8102;SDS011;4094;49.948;11.574;2023-03-01T00:29:16;22.33;;;20.27;;
8102;SDS011;4094;49.948;11.574;2023-03-01T00:31:45;21.80;;;19.90;;
8102;SDS011;4094;49.948;11.574;2023-03-01T00:34:14;21.60;;;19.60;;
8102;SDS011;4094;49.948;11.574;2023-03-01T00:36:43;20.87;;;19.00;;
8102;SDS011;4094;49.948;11.574;2023-03-01T00:39:13;21.70;;;19.70;;
8102;SDS011;4094;49.948;11.574;2023-03-01T00:41:43;22.37;;;20.33;;
8102;SDS011;4094;49.948;11.574;2023-03-01T00:44:13;23.20;;;20.23;;
8102;SDS011;4094;49.948;11.574;2023-03-01T00:46:42;22.13;;;20.03;;
8102;SDS011;4094;49.948;11.574;2023-03-01T00:49:11;22.17;;;20.07;;
8102;SDS011;4094;49.948;11.574;2023-03-01T00:51:41;21.37;;;19.50;;
8102;SDS011;4094;49.948;11.574;2023-03-01T00:54:10;20.87;;;19.07;;
8102;SDS011;4094;49.948;11.574;2023-03-01T00:56:39;22.90;;;20.80;;
8102;SDS011;4094;49.948;11.574;2023-03-01T00:59:08;21.37;;;19.67;;
8102;SDS011;4094;49.948;11.574;2023-03-01T01:01:38;21.43;;;19.47;;
8102;SDS011;4094;49.948;11.574;2023-03-01T01:04:07;21.63;;;19.80;;
8102;SDS011;4094;49.948;11.574;2023-03-01T01:06:39;21.93;;;20.03;;
8102;SDS011;4094;49.948;11.574;2023-03-01T01:09:10;21.47;;;19.47;;
8102;SDS011;4094;49.948;11.574;2023-03-01T01:11:44;22.50;;;20.50;;
8102;SDS011;4094;49.948;11.574;2023-03-01T01:14:14;21.40;;;19.57;;
8102;SDS011;4094;49.948;11.574;2023-03-01T01:16:44;22.10;;;20.20;;
8102;SDS011;4094;49.948;11.574;2023-03-01T01:19:14;22.63;;;20.40;;
8102;SDS011;4094;49.948;11.574;2023-03-01T01:21:43;22.43;;;20.30;;
8102;SDS011;4094;49.948;11.574;2023-03-01T01:24:13;21.77;;;19.77;;
8102;SDS011;4094;49.948;11.574;2023-03-01T01:26:42;22.53;;;20.43;;
8102;SDS011;4094;49.948;11.574;2023-03-01T01:29:12;21.97;;;20.00;;
8102;SDS011;4094;49.948;11.574;2023-03-01T01:31:42;22.30;;;20.30;;
8102;SDS011;4094;49.948;11.574;2023-03-01T01:34:14;21.37;;;19.27;;
8102;SDS011;4094;49.948;11.574;2023-03-01T01:36:47;21.67;;;19.77;;
8102;SDS011;4094;49.948;11.574;2023-03-01T01:39:17;21.33;;;19.33;;
8102;SDS011;4094;49.948;11.574;2023-03-01T01:41:46;21.83;;;19.83;;
8102;SDS011;4094;49.948;11.574;2023-03-01T01:44:16;22.37;;;20.37;;
8102;SDS011;4094;49.948;11.574;2023-03-01T01:46:47;21.73;;;19.70;;
8102;SDS011;4094;49.948;11.574;2023-03-01T01:49:28;21.57;;;19.77;;
8102;SDS011;4094;49.948;11.574;2023-03-01T01:52:03;21.97;;;20.00;;
8102;SDS011;4094;49.948;11.574;2023-03-01T01:54:39;21.97;;;19.97;;
8102;SDS011;4094;49.948;11.574;2023-03-01T01:57:13;21.97;;;19.97;;
8102;SDS011;4094;49.948;11.574;2023-03-01T01:59:45;22.07;;;20.07;;
8102;SDS011;4094;49.948;11.574;2023-03-01T02:02:18;22.30;;;20.40;;
8102;SDS011;4094;49.948;11.574;2023-03-01T02:04:49;21.47;;;19.47;;
8102;SDS011;4094;49.948;11.574;2023-03-01T02:07:26;21.77;;;19.97;;
8102;SDS011;4094;49.948;11.574;2023-03-01T02:09:55;22.80;;;20.73;;
8102;SDS011;4094;49.948;11.574;2023-03-01T02:12:25;22.47;;;20.27;;
8102;SDS011;4094;49.948;11.574;2023-03-01T02:14:55;22.20;;;20.27;;
8102;SDS011;4094;49.948;11.574;2023-03-01T02:17:23;22.47;;;20.47;;
8102;SDS011;4094;49.948;11.574;2023-03-01T02:20:02;22.63;;;20.63;;
8102;SDS011;4094;49.948;11.574;2023-03-01T02:22:40;21.63;;;19.70;;
8102;SDS011;4094;49.948;11.574;2023-03-01T02:25:21;21.83;;;19.93;;
8102;SDS011;4094;49.948;11.574;2023-03-01T02:27:56;22.60;;;20.57;;
8102;SDS011;4094;49.948;11.574;2023-03-01T02:30:31;21.93;;;20.03;;
8102;SDS011;4094;49.948;11.574;2023-03-01T02:33:02;21.37;;;19.47;;
8102;SDS011;4094;49.948;11.574;2023-03-01T02:35:31;21.50;;;19.57;;
8102;SDS011;4094;49.948;11.574;2023-03-01T02:38:05;21.60;;;19.70;;
8102;SDS011;4094;49.948;11.574;2023-03-01T02:40:36;20.90;;;18.93;;
8102;SDS011;4094;49.948;11.574;2023-03-01T02:43:08;21.13;;;19.13;;
8102;SDS011;4094;49.948;11.574;2023-03-01T02:45:47;21.80;;;19.87;;
8102;SDS011;4094;49.948;11.574;2023-03-01T02:48:17;22.87;;;20.77;;
8102;SDS011;4094;49.948;11.574;2023-03-01T02:50:52;22.27;;;20.27;;
8102;SDS011;4094;49.948;11.574;2023-03-01T02:53:34;21.90;;;19.97;;
8102;SDS011;4094;49.948;11.574;2023-03-01T02:56:10;21.63;;;19.83;;
8102;SDS011;4094;49.948;11.574;2023-03-01T02:58:40;22.53;;;20.33;;
8102;SDS011;4094;49.948;11.574;2023-03-01T03:01:17;22.00;;;20.00;;
8102;SDS011;4094;49.948;11.574;2023-03-01T03:03:46;22.90;;;20.47;;
8102;SDS011;4094;49.948;11.574;2023-03-01T03:06:17;22.53;;;20.43;;
8102;SDS011;4094;49.948;11.574;2023-03-01T03:08:47;22.80;;;20.77;;
8102;SDS011;4094;49.948;11.574;2023-03-01T03:11:16;24.43;;;21.90;;
8102;SDS011;4094;49.948;11.574;2023-03-01T03:13:45;23.87;;;21.53;;
8102;SDS011;4094;49.948;11.574;2023-03-01T03:16:18;23.50;;;21.40;;
8102;SDS011;4094;49.948;11.574;2023-03-01T03:18:47;23.07;;;20.97;;
8102;SDS011;4094;49.948;11.574;2023-03-01T03:21:16;24.03;;;21.80;;
8102;SDS011;4094;49.948;11.574;2023-03-01T03:23:45;23.83;;;21.60;;
8102;SDS011;4094;49.948;11.574;2023-03-01T03:26:14;22.63;;;20.50;;
8102;SDS011;4094;49.948;11.574;2023-03-01T03:28:43;23.40;;;21.17;;
8102;SDS011;4094;49.948;11.574;2023-03-01T03:31:14;22.30;;;20.27;;
8102;SDS011;4094;49.948;11.574;2023-03-01T03:33:44;22.67;;;20.67;;
8102;SDS011;4094;49.948;11.574;2023-03-01T03:36:15;22.43;;;20.47;;
8102;SDS011;4094;49.948;11.574;2023-03-01T03:38:45;23.57;;;21.57;;
8102;SDS011;4094;49.948;11.574;2023-03-01T03:41:14;22.87;;;20.90;;
8102;SDS011;4094;49.948;11.574;2023-03-01T03:43:44;23.30;;;21.00;;
8102;SDS011;4094;49.948;11.574;2023-03-01T03:46:13;22.33;;;20.23;;
8102;SDS011;4094;49.948;11.574;2023-03-01T03:48:42;24.07;;;21.90;;
8102;SDS011;4094;49.948;11.574;2023-03-01T03:51:14;23.37;;;21.07;;
8102;SDS011;4094;49.948;11.574;2023-03-01T03:53:45;23.93;;;21.23;;
8102;SDS011;4094;49.948;11.574;2023-03-01T03:56:14;23.77;;;21.50;;
8102;SDS011;4094;49.948;11.574;2023-03-01T03:58:43;23.73;;;21.43;;
8102;SDS011;4094;49.948;11.574;2023-03-01T04:01:12;23.10;;;21.00;;
8102;SDS011;4094;49.948;11.574;2023-03-01T04:03:41;23.23;;;21.13;;
8102;SDS011;4094;49.948;11.574;2023-03-01T04:06:15;23.67;;;21.47;;
8102;SDS011;4094;49.948;11.574;2023-03-01T04:08:44;23.60;;;21.20;;
8102;SDS011;4094;49.948;11.574;2023-03-01T04:11:13;24.67;;;22.03;;
8102;SDS011;4094;49.948;11.574;2023-03-01T04:13:57;23.70;;;21.33;;
8102;SDS011;4094;49.948;11.574;2023-03-01T04:16:27;24.30;;;22.10;;
8102;SDS011;4094;49.948;11.574;2023-03-01T04:18:57;24.40;;;22.13;;
8102;SDS011;4094;49.948;11.574;2023-03-01T04:21:28;24.87;;;22.27;;
8102;SDS011;4094;49.948;11.574;2023-03-01T04:23:57;24.07;;;21.73;;
8102;SDS011;4094;49.948;11.574;2023-03-01T04:26:26;23.23;;;21.03;;
8102;SDS011;4094;49.948;11.574;2023-03-01T04:28:55;23.80;;;21.57;;
8102;SDS011;4094;49.948;11.574;2023-03-01T04:31:24;25.10;;;22.60;;
8102;SDS011;4094;49.948;11.574;2023-03-01T04:33:54;23.93;;;21.80;;
8102;SDS011;4094;49.948;11.574;2023-03-01T04:36:24;24.27;;;21.87;;
8102;SDS011;4094;49.948;11.574;2023-03-01T04:38:56;24.70;;;22.30;;
8102;SDS011;4094;49.948;11.574;2023-03-01T04:41:25;24.17;;;21.80;;
8102;SDS011;4094;49.948;11.574;2023-03-01T04:43:54;24.27;;;21.93;;
8102;SDS011;4094;49.948;11.574;2023-03-01T04:46:23;25.73;;;23.20;;
8102;SDS011;4094;49.948;11.574;2023-03-01T04:48:52;24.30;;;22.10;;
8102;SDS011;4094;49.948;11.574;2023-03-01T04:51:22;23.77;;;21.50;;
8102;SDS011;4094;49.948;11.574;2023-03-01T04:53:51;23.57;;;21.37;;
8102;SDS011;4094;49.948;11.574;2023-03-01T04:56:21;24.30;;;22.13;;
8102;SDS011;4094;49.948;11.574;2023-03-01T04:58:52;26.07;;;23.47;;
8102;SDS011;4094;49.948;11.574;2023-03-01T05:01:22;25.00;;;22.70;;
8102;SDS011;4094;49.948;11.574;2023-03-01T05:03:51;25.50;;;23.10;;
8102;SDS011;4094;49.948;11.574;2023-03-01T05:06:21;25.90;;;23.40;;
8102;SDS011;4094;49.948;11.574;2023-03-01T05:08:50;24.73;;;22.40;;
8102;SDS011;4094;49.948;11.574;2023-03-01T05:11:20;25.23;;;22.93;;
8102;SDS011;4094;49.948;11.574;2023-03-01T05:13:50;24.40;;;22.20;;
8102;SDS011;4094;49.948;11.574;2023-03-01T05:16:22;25.33;;;22.97;;
8102;SDS011;4094;49.948;11.574;2023-03-01T05:18:51;25.13;;;22.83;;
8102;SDS011;4094;49.948;11.574;2023-03-01T05:21:22;25.37;;;22.80;;
8102;SDS011;4094;49.948;11.574;2023-03-01T05:23:51;25.17;;;22.80;;
8102;SDS011;4094;49.948;11.574;2023-03-01T05:26:22;26.00;;;23.60;;
8102;SDS011;4094;49.948;11.574;2023-03-01T05:28:55;25.57;;;23.10;;
8102;SDS011;4094;49.948;11.574;2023-03-01T05:31:26;26.97;;;24.37;;
8102;SDS011;4094;49.948;11.574;2023-03-01T05:33:57;26.37;;;23.87;;
8102;SDS011;4094;49.948;11.574;2023-03-01T05:36:26;27.47;;;24.67;;
8102;SDS011;4094;49.948;11.574;2023-03-01T05:38:56;25.40;;;23.13;;
8102;SDS011;4094;49.948;11.574;2023-03-01T05:41:26;26.33;;;23.73;;
8102;SDS011;4094;49.948;11.574;2023-03-01T05:43:55;25.93;;;23.40;;
8102;SDS011;4094;49.948;11.574;2023-03-01T05:46:24;27.50;;;24.73;;
8102;SDS011;4094;49.948;11.574;2023-03-01T05:48:53;26.03;;;23.57;;
8102;SDS011;4094;49.948;11.574;2023-03-01T05:51:22;25.87;;;23.33;;
8102;SDS011;4094;49.948;11.574;2023-03-01T05:53:51;26.90;;;24.20;;
8102;SDS011;4094;49.948;11.574;2023-03-01T05:56:20;26.90;;;24.30;;
8102;SDS011;4094;49.948;11.574;2023-03-01T05:58:52;25.20;;;22.90;;
8102;SDS011;4094;49.948;11.574;2023-03-01T06:01:22;26.37;;;23.77;;
8102;SDS011;4094;49.948;11.574;2023-03-01T06:03:51;26.93;;;24.33;;
8102;SDS011;4094;49.948;11.574;2023-03-01T06:06:20;26.50;;;24.00;;
8102;SDS011;4094;49.948;11.574;2023-03-01T06:08:49;28.60;;;25.90;;
8102;SDS011;4094;49.948;11.574;2023-03-01T06:11:19;30.40;;;27.20;;
8102;SDS011;4094;49.948;11.574;2023-03-01T06:13:48;32.63;;;29.23;;
8102;SDS011;4094;49.948;11.574;2023-03-01T06:16:19;31.93;;;28.50;;
8102;SDS011;4094;49.948;11.574;2023-03-01T06:18:49;33.70;;;30.13;;
8102;SDS011;4094;49.948;11.574;2023-03-01T06:21:18;33.07;;;29.53;;
8102;SDS011;4094;49.948;11.574;2023-03-01T06:23:47;30.10;;;27.10;;
8102;SDS011;4094;49.948;11.574;2023-03-01T06:26:16;30.03;;;26.73;;
8102;SDS011;4094;49.948;11.574;2023-03-01T06:28:45;28.53;;;25.73;;
8102;SDS011;4094;49.948;11.574;2023-03-01T06:31:14;28.80;;;25.80;;
8102;SDS011;4094;49.948;11.574;2023-03-01T06:33:45;29.40;;;26.40;;
8102;SDS011;4094;49.948;11.574;2023-03-01T06:36:14;31.60;;;28.13;;
8102;SDS011;4094;49.948;11.574;2023-03-01T06:38:45;32.07;;;28.77;;
8102;SDS011;4094;49.948;11.574;2023-03-01T06:41:14;27.20;;;24.60;;
8102;SDS011;4094;49.948;11.574;2023-03-01T06:43:43;27.43;;;24.67;;
8102;SDS011;4094;49.948;11.574;2023-03-01T06:46:13;28.57;;;25.77;;
8102;SDS011;4094;49.948;11.574;2023-03-01T06:48:42;28.77;;;25.97;;
8102;SDS011;4094;49.948;11.574;2023-03-01T06:51:12;26.93;;;24.37;;
8102;SDS011;4094;49.948;11.574;2023-03-01T06:53:41;27.60;;;24.87;;
8102;SDS011;4094;49.948;11.574;2023-03-01T06:56:10;27.03;;;24.40;;
8102;SDS011;4094;49.948;11.574;2023-03-01T06:58:39;27.00;;;24.33;;
8102;SDS011;4094;49.948;11.574;2023-03-01T07:01:09;28.53;;;25.80;;
8102;SDS011;4094;49.948;11.574;2023-03-01T07:03:38;28.67;;;25.77;;
8102;SDS011;4094;49.948;11.574;2023-03-01T07:06:07;29.37;;;26.37;;
8102;SDS011;4094;49.948;11.574;2023-03-01T07:08:37;28.03;;;25.27;;
8102;SDS011;4094;49.948;11.574;2023-03-01T07:11:07;29.00;;;26.20;;
8102;SDS011;4094;49.948;11.574;2023-03-01T07:13:36;29.10;;;26.30;;
8102;SDS011;4094;49.948;11.574;2023-03-01T07:16:05;27.60;;;24.83;;
8102;SDS011;4094;49.948;11.574;2023-03-01T07:18:35;29.33;;;26.37;;
8102;SDS011;4094;49.948;11.574;2023-03-01T07:21:05;27.87;;;25.07;;
8102;SDS011;4094;49.948;11.574;2023-03-01T07:23:35;27.90;;;25.20;;
8102;SDS011;4094;49.948;11.574;2023-03-01T07:26:05;26.77;;;24.17;;
8102;SDS011;4094;49.948;11.574;2023-03-01T07:28:35;27.13;;;24.50;;
8102;SDS011;4094;49.948;11.574;2023-03-01T07:31:06;28.40;;;25.63;;
8102;SDS011;4094;49.948;11.574;2023-03-01T07:33:35;28.13;;;25.17;;
8102;SDS011;4094;49.948;11.574;2023-03-01T07:36:05;28.37;;;25.60;;
8102;SDS011;4094;49.948;11.574;2023-03-01T07:38:35;27.50;;;24.83;;
8102;SDS011;4094;49.948;11.574;2023-03-01T07:41:05;28.07;;;25.40;;
8102;SDS011;4094;49.948;11.574;2023-03-01T07:43:34;28.63;;;25.80;;
8102;SDS011;4094;49.948;11.574;2023-03-01T07:46:04;28.97;;;26.23;;
8102;SDS011;4094;49.948;11.574;2023-03-01T07:48:34;28.07;;;25.37;;
8102;SDS011;4094;49.948;11.574;2023-03-01T07:51:04;28.43;;;25.73;;
8102;SDS011;4094;49.948;11.574;2023-03-01T07:53:34;27.97;;;25.10;;
8102;SDS011;4094;49.948;11.574;2023-03-01T07:56:06;27.63;;;24.73;;
8102;SDS011;4094;49.948;11.574;2023-03-01T07:58:36;28.00;;;25.13;;
8102;SDS011;4094;49.948;11.574;2023-03-01T08:01:07;26.20;;;23.80;;
8102;SDS011;4094;49.948;11.574;2023-03-01T08:03:38;27.33;;;24.63;;
8102;SDS011;4094;49.948;11.574;2023-03-01T08:06:08;24.87;;;22.27;;
8102;SDS011;4094;49.948;11.574;2023-03-01T08:08:38;24.27;;;21.97;;
8102;SDS011;4094;49.948;11.574;2023-03-01T08:11:11;23.90;;;21.60;;
8102;SDS011;4094;49.948;11.574;2023-03-01T08:13:42;23.63;;;21.43;;
8102;SDS011;4094;49.948;11.574;2023-03-01T08:16:13;22.57;;;20.37;;
8102;SDS011;4094;49.948;11.574;2023-03-01T08:18:43;23.77;;;21.37;;
8102;SDS011;4094;49.948;11.574;2023-03-01T08:21:13;21.37;;;19.47;;
8102;SDS011;4094;49.948;11.574;2023-03-01T08:23:44;22.27;;;20.17;;
8102;SDS011;4094;49.948;11.574;2023-03-01T08:26:16;22.30;;;20.07;;
8102;SDS011;4094;49.948;11.574;2023-03-01T08:28:47;21.43;;;19.43;;
8102;SDS011;4094;49.948;11.574;2023-03-01T08:31:18;21.10;;;18.90;;
8102;SDS011;4094;49.948;11.574;2023-03-01T08:33:50;22.03;;;19.77;;
8102;SDS011;4094;49.948;11.574;2023-03-01T08:36:23;20.20;;;18.40;;
8102;SDS011;4094;49.948;11.574;2023-03-01T08:38:53;19.47;;;17.47;;
8102;SDS011;4094;49.948;11.574;2023-03-01T08:41:24;20.30;;;18.27;;
8102;SDS011;4094;49.948;11.574;2023-03-01T08:43:54;20.07;;;18.17;;
8102;SDS011;4094;49.948;11.574;2023-03-01T08:46:26;20.73;;;18.63;;
8102;SDS011;4094;49.948;11.574;2023-03-01T08:48:56;19.47;;;17.57;;
8102;SDS011;4094;49.948;11.574;2023-03-01T08:51:26;20.57;;;18.40;;
8102;SDS011;4094;49.948;11.574;2023-03-01T08:53:56;20.33;;;18.40;;
8102;SDS011;4094;49.948;11.574;2023-03-01T08:56:32;19.63;;;17.83;;
8102;SDS011;4094;49.948;11.574;2023-03-01T08:59:02;19.63;;;17.83;;
8102;SDS011;4094;49.948;11.574;2023-03-01T09:01:32;19.40;;;17.63;;
8102;SDS011;4094;49.948;11.574;2023-03-01T09:04:02;19.67;;;17.80;;
8102;SDS011;4094;49.948;11.574;2023-03-01T09:06:31;19.93;;;18.03;;
8102;SDS011;4094;49.948;11.574;2023-03-01T09:09:02;20.40;;;18.47;;
8102;SDS011;4094;49.948;11.574;2023-03-01T09:11:34;20.23;;;18.30;;
8102;SDS011;4094;49.948;11.574;2023-03-01T09:14:04;20.77;;;18.77;;
8102;SDS011;4094;49.948;11.574;2023-03-01T09:16:34;20.60;;;18.60;;
8102;SDS011;4094;49.948;11.574;2023-03-01T09:19:04;21.47;;;19.37;;
8102;SDS011;4094;49.948;11.574;2023-03-01T09:21:33;21.10;;;19.20;;
8102;SDS011;4094;49.948;11.574;2023-03-01T09:24:11;20.57;;;18.67;;
8102;SDS011;4094;49.948;11.574;2023-03-01T09:26:44;21.57;;;19.37;;
8102;SDS011;4094;49.948;11.574;2023-03-01T09:29:16;19.93;;;18.07;;
8102;SDS011;4094;49.948;11.574;2023-03-01T09:31:45;20.97;;;18.80;;
8102;SDS011;4094;49.948;11.574;2023-03-01T09:34:15;21.17;;;19.17;;
8102;SDS011;4094;49.948;11.574;2023-03-01T09:36:50;20.77;;;18.67;;
8102;SDS011;4094;49.948;11.574;2023-03-01T09:39:19;19.80;;;17.93;;
8102;SDS011;4094;49.948;11.574;2023-03-01T09:41:52;20.60;;;18.70;;
8102;SDS011;4094;49.948;11.574;2023-03-01T09:44:31;21.00;;;19.10;;
8102;SDS011;4094;49.948;11.574;2023-03-01T09:47:04;20.43;;;18.53;;
8102;SDS011;4094;49.948;11.574;2023-03-01T09:49:39;18.67;;;17.07;;
8102;SDS011;4094;49.948;11.574;2023-03-01T09:52:19;18.03;;;16.23;;
8102;SDS011;4094;49.948;11.574;2023-03-01T09:54:54;18.67;;;16.83;;
8102;SDS011;4094;49.948;11.574;2023-03-01T09:57:30;16.47;;;14.90;;
8102;SDS011;4094;49.948;11.574;2023-03-01T10:00:17;18.30;;;16.57;;
8102;SDS011;4094;49.948;11.574;2023-03-01T10:02:57;16.33;;;14.73;;
8102;SDS011;4094;49.948;11.574;2023-03-01T10:05:33;17.30;;;15.70;;
8102;SDS011;4094;49.948;11.574;2023-03-01T10:08:19;15.97;;;14.53;;
8102;SDS011;4094;49.948;11.574;2023-03-01T10:10:58;15.47;;;13.97;;
8102;SDS011;4094;49.948;11.574;2023-03-01T10:13:31;15.57;;;14.07;;
8102;SDS011;4094;49.948;11.574;2023-03-01T10:16:10;15.50;;;14.10;;
8102;SDS011;4094;49.948;11.574;2023-03-01T10:18:43;16.87;;;13.33;;
8102;SDS011;4094;49.948;11.574;2023-03-01T10:21:19;13.80;;;12.27;;
8102;SDS011;4094;49.948;11.574;2023-03-01T10:23:49;13.83;;;12.43;;
8102;SDS011;4094;49.948;11.574;2023-03-01T10:26:24;13.57;;;12.27;;
8102;SDS011;4094;49.948;11.574;2023-03-01T10:29:09;13.07;;;11.83;;
8102;SDS011;4094;49.948;11.574;2023-03-01T10:31:41;14.67;;;11.13;;
8102;SDS011;4094;49.948;11.574;2023-03-01T10:34:14;12.97;;;11.43;;
8102;SDS011;4094;49.948;11.574;2023-03-01T10:36:47;13.07;;;11.87;;
8102;SDS011;4094;49.948;11.574;2023-03-01T10:39:19;13.13;;;11.77;;
8102;SDS011;4094;49.948;11.574;2023-03-01T10:41:57;12.50;;;11.30;;
8102;SDS011;4094;49.948;11.574;2023-03-01T10:44:40;12.00;;;10.80;;
8102;SDS011;4094;49.948;11.574;2023-03-01T10:47:18;12.13;;;11.03;;
8102;SDS011;4094;49.948;11.574;2023-03-01T10:49:51;13.03;;;11.70;;
8102;SDS011;4094;49.948;11.574;2023-03-01T10:52:26;12.17;;;10.97;;
8102;SDS011;4094;49.948;11.574;2023-03-01T10:54:59;12.80;;;11.60;;
8102;SDS011;4094;49.948;11.574;2023-03-01T10:57:35;12.87;;;11.47;;
8102;SDS011;4094;49.948;11.574;2023-03-01T11:00:19;13.40;;;12.13;;
8102;SDS011;4094;49.948;11.574;2023-03-01T11:03:01;13.93;;;12.43;;
8102;SDS011;4094;49.948;11.574;2023-03-01T11:05:50;13.50;;;12.23;;
8102;SDS011;4094;49.948;11.574;2023-03-01T11:08:29;13.10;;;11.87;;
8102;SDS011;4094;49.948;11.574;2023-03-01T11:11:06;13.20;;;12.00;;
8102;SDS011;4094;49.948;11.574;2023-03-01T11:13:53;13.83;;;12.43;;
8102;SDS011;4094;49.948;11.574;2023-03-01T11:16:27;13.87;;;12.47;;
8102;SDS011;4094;49.948;11.574;2023-03-01T11:19:04;14.07;;;12.00;;
8102;SDS011;4094;49.948;11.574;2023-03-01T11:21:54;13.07;;;11.93;;
8102;SDS011;4094;49.948;11.574;2023-03-01T11:24:33;13.10;;;11.70;;
8102;SDS011;4094;49.948;11.574;2023-03-01T11:27:17;12.27;;;11.17;;
8102;SDS011;4094;49.948;11.574;2023-03-01T11:29:51;12.93;;;11.47;;
8102;SDS011;4094;49.948;11.574;2023-03-01T11:32:26;13.90;;;12.40;;
8102;SDS011;4094;49.948;11.574;2023-03-01T11:35:03;13.43;;;12.03;;
8102;SDS011;4094;49.948;11.574;2023-03-01T11:37:40;14.10;;;12.60;;
8102;SDS011;4094;49.948;11.574;2023-03-01T11:40:14;13.73;;;12.40;;
8102;SDS011;4094;49.948;11.574;2023-03-01T11:42:54;13.63;;;12.23;;
8102;SDS011;4094;49.948;11.574;2023-03-01T11:45:37;14.50;;;12.73;;
8102;SDS011;4094;49.948;11.574;2023-03-01T11:48:22;14.80;;;12.83;;
8102;SDS011;4094;49.948;11.574;2023-03-01T11:51:19;12.30;;;11.10;;
8102;SDS011;4094;49.948;11.574;2023-03-01T11:56:57;12.37;;;11.17;;
8102;SDS011;4094;49.948;11.574;2023-03-01T11:59:48;12.37;;;11.23;;
8102;SDS011;4094;49.948;11.574;2023-03-01T12:02:40;13.23;;;11.93;;
8102;SDS011;4094;49.948;11.574;2023-03-01T12:05:33;12.20;;;11.00;;
8102;SDS011;4094;49.948;11.574;2023-03-01T12:08:22;12.03;;;10.77;;
8102;SDS011;4094;49.948;11.574;2023-03-01T12:11:00;12.17;;;10.97;;
8102;SDS011;4094;49.948;11.574;2023-03-01T12:13:42;11.90;;;10.80;;
8102;SDS011;4094;49.948;11.574;2023-03-01T12:16:34;11.67;;;10.50;;
8102;SDS011;4094;49.948;11.574;2023-03-01T12:19:28;12.07;;;10.90;;
8102;SDS011;4094;49.948;11.574;2023-03-01T12:22:20;12.03;;;10.77;;
8102;SDS011;4094;49.948;11.574;2023-03-01T12:25:11;12.07;;;10.87;;
8102;SDS011;4094;49.948;11.574;2023-03-01T12:30:46;12.27;;;10.57;;
8102;SDS011;4094;49.948;11.574;2023-03-01T12:33:26;11.87;;;10.67;;
8102;SDS011;4094;49.948;11.574;2023-03-01T12:36:10;11.37;;;10.20;;
8102;SDS011;4094;49.948;11.574;2023-03-01T12:39:03;10.93;;;9.83;;
8102;SDS011;4094;49.948;11.574;2023-03-01T12:41:47;12.13;;;9.83;;
8102;SDS011;4094;49.948;11.574;2023-03-01T12:44:29;10.77;;;9.60;;
8102;SDS011;4094;49.948;11.574;2023-03-01T12:47:20;10.20;;;9.20;;
8102;SDS011;4094;49.948;11.574;2023-03-01T12:49:59;11.67;;;8.93;;
8102;SDS011;4094;49.948;11.574;2023-03-01T12:52:33;10.67;;;9.23;;
8102;SDS011;4094;49.948;11.574;2023-03-01T12:55:15;11.20;;;10.00;;
8102;SDS011;4094;49.948;11.574;2023-03-01T12:57:56;10.93;;;9.83;;
8102;SDS011;4094;49.948;11.574;2023-03-01T13:00:31;12.00;;;10.80;;
8102;SDS011;4094;49.948;11.574;2023-03-01T13:03:10;11.53;;;10.40;;
8102;SDS011;4094;49.948;11.574;2023-03-01T13:05:50;10.83;;;9.73;;
8102;SDS011;4094;49.948;11.574;2023-03-01T13:08:35;11.10;;;10.00;;
8102;SDS011;4094;49.948;11.574;2023-03-01T13:11:15;12.57;;;10.27;;
8102;SDS011;4094;49.948;11.574;2023-03-01T13:13:47;12.53;;;10.63;;
8102;SDS011;4094;49.948;11.574;2023-03-01T13:16:20;11.33;;;10.30;;
8102;SDS011;4094;49.948;11.574;2023-03-01T13:19:07;12.77;;;11.43;;
8102;SDS011;4094;49.948;11.574;2023-03-01T13:21:42;12.17;;;10.97;;
8102;SDS011;4094;49.948;11.574;2023-03-01T13:24:25;14.43;;;13.03;;
8102;SDS011;4094;49.948;11.574;2023-03-01T13:27:19;13.60;;;12.20;;
8102;SDS011;4094;49.948;11.574;2023-03-01T13:29:56;13.03;;;11.80;;
8102;SDS011;4094;49.948;11.574;2023-03-01T13:32:31;13.70;;;12.27;;
8102;SDS011;4094;49.948;11.574;2023-03-01T13:38:37;15.13;;;13.60;;
8102;SDS011;4094;49.948;11.574;2023-03-01T13:44:24;13.07;;;11.77;;
8102;SDS011;4094;49.948;11.574;2023-03-01T13:46:57;13.87;;;12.47;;
8102;SDS011;4094;49.948;11.574;2023-03-01T13:49:29;12.87;;;11.77;;
8102;SDS011;4094;49.948;11.574;2023-03-01T13:52:22;13.60;;;12.30;;
8102;SDS011;4094;49.948;11.574;2023-03-01T13:55:04;13.20;;;11.90;;
8102;SDS011;4094;49.948;11.574;2023-03-01T13:57:44;15.17;;;13.67;;
8102;SDS011;4094;49.948;11.574;2023-03-01T14:00:30;15.17;;;13.67;;
8102;SDS011;4094;49.948;11.574;2023-03-01T14:03:14;15.03;;;13.53;;
8102;SDS011;4094;49.948;11.574;2023-03-01T14:05:57;15.73;;;14.20;;
8102;SDS011;4094;49.948;11.574;2023-03-01T14:08:40;15.63;;;14.13;;
8102;SDS011;4094;49.948;11.574;2023-03-01T14:11:20;15.00;;;13.60;;
8102;SDS011;4094;49.948;11.574;2023-03-01T14:14:18;15.77;;;14.37;;
8102;SDS011;4094;49.948;11.574;2023-03-01T14:17:12;16.27;;;14.57;;
8102;SDS011;4094;49.948;11.574;2023-03-01T14:19:54;15.63;;;14.13;;
8102;SDS011;4094;49.948;11.574;2023-03-01T14:22:26;17.57;;;15.80;;
8102;SDS011;4094;49.948;11.574;2023-03-01T14:24:57;16.77;;;15.03;;
8102;SDS011;4094;49.948;11.574;2023-03-01T14:27:30;17.67;;;16.00;;
8102;SDS011;4094;49.948;11.574;2023-03-01T14:30:09;17.97;;;16.27;;
8102;SDS011;4094;49.948;11.574;2023-03-01T14:32:48;17.80;;;16.17;;
8102;SDS011;4094;49.948;11.574;2023-03-01T14:35:22;17.30;;;15.70;;
8102;SDS011;4094;49.948;11.574;2023-03-01T14:37:54;16.27;;;14.80;;
8102;SDS011;4094;49.948;11.574;2023-03-01T14:40:24;16.63;;;15.10;;
8102;SDS011;4094;49.948;11.574;2023-03-01T14:42:56;17.20;;;15.50;;
8102;SDS011;4094;49.948;11.574;2023-03-01T14:45:28;16.83;;;15.33;;
8102;SDS011;4094;49.948;11.574;2023-03-01T14:48:00;17.37;;;15.87;;
8102;SDS011;4094;49.948;11.574;2023-03-01T14:50:32;18.60;;;16.90;;
8102;SDS011;4094;49.948;11.574;2023-03-01T14:53:03;18.03;;;16.33;;
8102;SDS011;4094;49.948;11.574;2023-03-01T14:55:36;18.63;;;16.90;;
8102;SDS011;4094;49.948;11.574;2023-03-01T14:58:09;17.73;;;16.03;;
8102;SDS011;4094;49.948;11.574;2023-03-01T15:00:44;18.90;;;17.17;;
8102;SDS011;4094;49.948;11.574;2023-03-01T15:03:23;19.10;;;17.40;;
8102;SDS011;4094;49.948;11.574;2023-03-01T15:05:57;18.83;;;17.13;;
8102;SDS011;4094;49.948;11.574;2023-03-01T15:08:28;18.60;;;16.90;;
8102;SDS011;4094;49.948;11.574;2023-03-01T15:11:01;19.73;;;17.60;;
8102;SDS011;4094;49.948;11.574;2023-03-01T15:13:35;20.60;;;18.43;;
8102;SDS011;4094;49.948;11.574;2023-03-01T15:16:09;19.43;;;17.77;;
8102;SDS011;4094;49.948;11.574;2023-03-01T15:18:44;20.43;;;18.43;;
8102;SDS011;4094;49.948;11.574;2023-03-01T15:21:16;21.10;;;19.10;;
8102;SDS011;4094;49.948;11.574;2023-03-01T15:23:48;21.80;;;19.67;;
8102;SDS011;4094;49.948;11.574;2023-03-01T15:26:22;23.67;;;21.43;;